Latest Coastal Weather Observations for Norah Head

IDN60701

Issued at 7:02 am EST Wednesday 22 April 2015 (issued every 10 minutes, with the page automatically refreshed every 10 minutes)

About coastal observations | Map of coastal stations | Coastal observations for NSW | Marine services | Other Formats
Station Details ID: 061366 Name: NORAH HEAD AWS Lat: -33.28 Lon: 151.58 Height: 18.8 m
Data from the previous 72 hours. | See also: Recent months at Norah Head
Date/Time
EST
Temp

°C
Wind Pressure Rain
since 9am
mm
Weather Cloud Vis
km
Sea
Height
m
Swell
Dir
 
Speed
knots
Gust
knots
hPa Trend Height
m
Period
s
Dir
22/07:00am 18.1 SSE 19 24 1011.3 - 76.2 - - - - - - -
22/06:30am 16.8 S 12 18 1011.2 - 76.0 - - - - - - -
22/06:00am 17.0 S 16 20 1010.9 - 75.8 Recent precip. - - - - - -
22/05:30am 16.7 S 16 19 1010.9 - 75.4 - - - - - - -
22/05:00am 16.3 SSE 12 18 1011.0 - 74.4 - - - - - - -
22/04:30am 16.4 ESE 16 24 1010.8 - 72.6 - - - - - - -
22/04:23am 16.3 ESE 25 33 1011.0 - 72.2 - - - - - - -
22/04:16am 16.2 SE 30 41 1011.1 - 70.8 - - - - - - -
22/04:12am 17.4 SSE 29 41 1010.8 - 70.2 - - - - - - -
22/04:08am 19.1 S 24 34 1009.8 - 70.0 - - - - - - -
22/04:00am 19.4 S 23 29 1009.2 - 70.0 - - - - - - -
22/03:30am 19.4 S 21 27 1009.3 - 69.8 - - - - - - -
22/03:00am 19.0 S 18 25 1009.6 - 69.8 - - - - - - -
22/02:30am 18.9 SSE 14 18 1010.5 - 69.8 - - - - - - -
22/02:00am 18.9 SE 16 19 1010.9 - 69.8 - - - - - - -
22/01:30am 18.9 SE 17 22 1010.8 - 69.8 - - - - - - -
22/01:00am 19.0 SSE 27 32 1010.1 - 69.8 - - - - - - -
22/12:30am 19.0 S 26 36 1009.3 - 69.8 - - - - - - -
22/12:01am 18.0 SSW 30 41 1009.9 - 69.8 - - - - - - -
22/12:00am 18.0 SSW 31 41 1010.0 - 69.8 - - - - - - -
 
Date/Time
EST
Temp

°C
Wind Pressure Rain
since 9am
mm
Weather Cloud Vis
km
Sea
Height
m
Swell
Dir
 
Speed
knots
Gust
knots
hPa Trend Height
m
Period
s
Dir
21/11:30pm 17.7 S 37 50 1010.1 - 69.8 - - - - - - -
21/11:00pm 17.2 S 38 48 1010.9 - 69.8 - - - - - - -
21/10:47pm 17.1 SSW 30 47 1011.3 - 69.4 - - - - - - -
21/10:45pm 17.2 SSW 29 43 1011.5 - 69.4 - - - - - - -
21/10:43pm 17.4 S 28 39 1012.0 - 68.8 - - - - - - -
21/10:42pm 17.3 S 28 39 1012.1 - 68.8 - - - - - - -
21/10:30pm 17.4 S 34 43 1012.3 - 63.2 - - - - - - -
21/10:00pm 17.0 S 38 51 1011.2 - 61.2 - - - - - - -
21/09:30pm 17.1 S 37 53 1011.7 - 54.4 - - - - - - -
21/09:00pm 16.9 S 40 57 1010.9 - 47.4 Rain - - - - - -
21/08:30pm 16.8 S 41 53 1012.1 - 39.8 - - - - - - -
21/08:00pm 16.5 SSW 40 53 1011.8 - 35.6 - - - - - - -
21/07:30pm 16.5 S 46 62 1011.5 - 35.2 - - - - - - -
21/07:00pm 16.0 S 49 67 1010.7 - 34.6 - - - - - - -
21/06:52pm 16.3 S 49 67 1010.1 - 34.2 - - - - - - -
21/06:30pm 16.4 S 43 61 1012.1 - 30.2 - - - - - - -
21/06:00pm 16.7 S 42 57 1011.5 - 25.6 Recent precip. - - - - - -
21/05:30pm 16.4 S 44 59 1011.2 - 25.2 - - - - - - -
21/05:27pm 16.1 S 41 59 1011.6 - 25.2 - - - - - - -
21/05:26pm 15.9 S 41 59 1011.5 - 25.2 - - - - - - -
21/05:03pm 16.0 SSW 39 60 1011.4 - 25.2 - - - - - - -
21/05:00pm 16.2 SSW 37 49 1011.5 - 25.2 - - - - - - -
21/04:30pm 15.9 SSW 41 57 1012.0 - 24.6 - - - - - - -
21/04:00pm 15.8 S 38 51 1013.0 - 19.0 - - - - - - -
21/03:30pm 15.9 S 39 52 1013.4 - 15.4 - - - - - - -
21/03:00pm 15.8 S 40 55 1013.2 - 12.0 Rain - - - - - -
21/02:30pm 15.7 S 38 49 1014.2 - 9.0 - - - - - - -
21/02:00pm 15.7 S 39 50 1014.7 - 4.2 - - - - - - -
21/01:30pm 16.6 S 43 54 1013.2 - 4.2 - - - - - - -
21/01:03pm 16.7 S 44 54 1013.7 - 3.8 - - - - - - -
21/01:00pm 16.5 S 45 54 1013.7 - 3.8 - - - - - - -
21/12:30pm 16.4 S 48 59 1014.0 - 2.6 - - - - - - -
21/12:00pm 16.8 S 46 59 1013.9 - 2.4 Recent precip. - - - - - -
21/11:35am 17.0 S 49 59 1014.6 - 2.4 - - - - - - -
21/11:30am 16.7 S 49 59 1014.1 - 2.4 - - - - - - -
21/11:00am 17.0 S 50 61 1014.4 - 1.4 - - - - - - -
21/10:30am 16.7 S 49 62 1013.9 - 1.4 - - - - - - -
21/10:01am 16.7 S 53 63 1014.0 - 1.4 - - - - - - -
21/10:00am 16.8 S 53 62 1013.9 - 1.4 - - - - - - -
21/09:53am 16.6 S 48 61 1013.5 - 1.4 - - - - - - -
21/09:32am 16.6 S 50 60 1015.5 - 1.4 - - - - - - -
21/09:30am 16.3 S 51 61 1015.1 - 1.4 - - - - - - -
21/09:00am 17.2 S 47 58 1014.9 - 61.4 Rain - - - - - -
21/08:32am 16.9 S 50 60 1014.7 - 61.2 - - - - - - -
21/08:30am 16.8 S 51 60 1014.8 - 61.2 - - - - - - -
21/08:04am 16.8 S 47 58 1015.5 - 60.4 - - - - - - -
21/08:00am 17.0 S 48 58 1015.3 - 60.4 - - - - - - -
21/07:30am 16.8 S 50 61 1014.9 - 60.0 - - - - - - -
21/07:00am 17.0 S 54 68 1014.0 - 60.0 - - - - - - -
21/06:30am 16.8 S 49 61 1014.2 - 60.0 - - - - - - -
21/06:00am 17.1 S 47 58 1014.4 - 59.8 Recent precip. - - - - - -
21/05:30am 16.4 S 51 63 1014.0 - 59.6 - - - - - - -
21/05:00am 16.8 S 51 64 1013.7 - 59.0 - - - - - - -
21/04:44am 16.7 S 52 73 1012.5 - 58.8 - - - - - - -
21/04:30am 16.4 S 48 60 1013.0 - 58.6 - - - - - - -
21/04:00am 16.7 S 49 62 1013.4 - 57.4 - - - - - - -
21/03:30am 16.8 S 49 60 1013.1 - 55.8 - - - - - - -
21/03:00am 16.8 S 49 66 1013.6 - 53.6 Rain - - - - - -
21/02:30am 17.0 S 50 61 1014.3 - 53.2 - - - - - - -
21/02:00am 17.1 S 48 60 1014.5 - 51.2 - - - - - - -
21/01:30am 17.3 S 49 62 1014.8 - 49.8 - - - - - - -
21/01:00am 17.4 S 46 57 1015.3 - 48.0 - - - - - - -
21/12:38am 17.0 S 44 55 1015.8 - 47.0 - - - - - - -
21/12:30am 17.1 S 45 54 1015.9 - 46.4 - - - - - - -
21/12:06am 17.3 S 42 52 1016.6 - 44.4 - - - - - - -
21/12:00am 17.0 S 43 52 1016.5 - 44.0 Rain - - - - - -
 
Date/Time
EST
Temp

°C
Wind Pressure Rain
since 9am
mm
Weather Cloud Vis
km
Sea
Height
m
Swell
Dir
 
Speed
knots
Gust
knots
hPa Trend Height
m
Period
s
Dir
20/11:30pm 17.6 S 41 51 1016.9 - 41.8 - - - - - - -
20/11:10pm 17.4 S 41 51 1016.7 - 40.4 - - - - - - -
20/11:00pm 17.9 S 41 48 1016.8 - 39.8 - - - - - - -
20/10:49pm 18.0 S 41 51 1016.9 - 38.8 - - - - - - -
20/10:30pm 18.1 S 43 52 1017.0 - 37.2 - - - - - - -
20/10:00pm 17.7 SSE 46 59 1016.9 - 36.2 - - - - - - -
20/09:35pm 17.4 S 46 57 1016.6 - 34.8 - - - - - - -
20/09:30pm 17.5 S 49 58 1016.5 - 34.4 - - - - - - -
20/09:23pm 17.6 S 42 58 1016.3 - 34.2 - - - - - - -
20/09:20pm 18.0 S 38 50 1016.8 - 33.6 - - - - - - -
20/09:00pm 17.9 S 37 45 1017.7 - 24.0 Rain - - - - - -
20/08:42pm 18.0 S 38 49 1017.9 - 18.8 - - - - - - -
20/08:30pm 17.8 S 39 46 1017.8 - 16.6 - - - - - - -
20/08:00pm 17.9 SSE 37 46 1018.2 - 12.6 - - - - - - -
20/07:50pm 18.1 SSE 40 51 1018.0 - 11.4 - - - - - - -
20/07:30pm 18.4 S 36 45 1018.2 - 10.2 - - - - - - -
20/07:00pm 18.1 SSE 37 49 1018.0 - 10.2 - - - - - - -
20/06:52pm 18.3 S 36 49 1017.9 - 10.2 - - - - - - -
20/06:30pm 17.8 S 35 41 1018.2 - 10.0 - - - - - - -
20/06:00pm 17.6 S 36 44 1018.3 - 9.8 Rain - - - - - -
20/05:30pm 17.9 S 30 36 1018.6 - 8.6 - - - - - - -
20/05:22pm 18.0 S 25 35 1018.6 - 8.4 - - - - - - -
20/05:00pm 17.6 S 22 30 1018.8 - 7.8 - - - - - - -
20/04:30pm 18.1 S 24 32 1018.5 - 7.8 - - - - - - -
20/04:00pm 17.7 S 26 32 1018.8 - 7.0 - - - - - - -
20/03:47pm 18.3 S 23 35 1018.3 - 6.0 - - - - - - -
20/03:30pm 18.0 S 22 26 1018.8 - 5.8 - - - - - - -
20/03:00pm 18.0 S 22 28 1018.4 - 5.8 Recent precip. - - - - - -
20/02:30pm 17.8 S 26 33 1018.4 - 5.6 - - - - - - -
20/02:00pm 17.8 S 24 30 1018.6 - 3.4 - - - - - - -
20/01:30pm 17.2 SSE 28 35 1019.0 - 1.6 - - - - - - -
20/01:00pm 17.7 SSE 24 31 1019.4 - 1.2 - - - - - - -
20/12:30pm 17.9 SSE 26 31 1019.6 - 0.6 - - - - - - -
20/12:00pm 17.9 SSE 29 34 1019.9 - 0.4 Rain - - - - - -
20/11:30am 18.1 SSE 31 35 1020.5 - 0.2 - - - - - - -
20/11:00am 18.1 SSE 32 36 1020.7 - 0.2 - - - - - - -
20/10:30am 18.3 S 28 35 1020.9 - 0.2 - - - - - - -
20/10:00am 17.7 S 29 34 1021.4 - 0.2 - - - - - - -
20/09:30am 17.4 S 28 34 1021.4 - 0.2 - - - - - - -
20/09:00am 17.4 S 25 31 1021.8 - 23.6 Recent precip. - - - - - -
20/08:30am 16.8 S 24 29 1021.9 - 23.6 - - - - - - -
20/08:18am 16.6 S 14 25 1022.3 - 23.4 - - - - - - -
20/08:00am 15.3 SSW 14 21 1022.6 - 21.2 - - - - - - -
20/07:30am 14.2 SW 12 21 1022.2 - 19.6 - - - - - - -
20/07:00am 13.3 SW 9 14 1022.3 - 19.4 - - - - - - -
20/06:30am 13.3 SW 10 14 1022.3 - 19.2 - - - - - - -
20/06:00am 13.2 SW 10 17 1022.2 - 18.4 Rain - - - - - -
20/05:30am 13.4 WSW 9 14 1022.6 - 16.2 - - - - - - -
20/05:00am 14.2 SW 13 22 1021.9 - 15.0 - - - - - - -
20/04:30am 14.2 SW 11 18 1022.2 - 15.0 - - - - - - -
20/04:00am 14.0 SW 9 14 1022.0 - 13.4 - - - - - - -
20/03:30am 14.8 SSW 11 21 1022.0 - 11.6 - - - - - - -
20/03:00am 14.4 SSW 11 17 1022.4 - 8.4 Rain - - - - - -
20/02:30am 14.3 SW 12 18 1022.4 - 3.6 - - - - - - -
20/02:00am 14.1 SW 8 13 1022.8 - 3.4 - - - - - - -
20/01:30am 14.1 SW 10 16 1022.9 - 3.0 - - - - - - -
20/01:00am 15.2 SW 12 19 1023.1 - 2.6 - - - - - - -
20/12:30am 14.8 SW 11 19 1023.1 - 2.6 - - - - - - -
20/12:00am 14.5 SSW 16 23 1023.4 - 2.6 Rain - - - - - -
 
Date/Time
EST
Temp

°C
Wind Pressure Rain
since 9am
mm
Weather Cloud Vis
km
Sea
Height
m
Swell
Dir
 
Speed
knots
Gust
knots
hPa Trend Height
m
Period
s
Dir
19/11:49pm 14.6 SSW 15 25 1023.7 - 2.4 - - - - - - -
19/11:30pm 15.0 SW 11 19 1023.9 - 2.0 - - - - - - -
19/11:00pm 15.5 SW 13 23 1023.9 - 1.6 - - - - - - -
19/10:30pm 15.3 SW 13 22 1024.1 - 0.8 - - - - - - -
19/10:00pm 16.3 SSW 19 26 1023.8 - 0.6 - - - - - - -
19/09:31pm 16.9 SSW 21 31 1023.4 - 0.6 - - - - - - -
19/09:30pm 16.8 SSW 22 31 1023.4 - 0.6 - - - - - - -
19/09:00pm 16.9 SSW 24 34 1023.1 - 0.6 Rain - - - - - -
19/08:31pm 17.6 SSW 23 33 1022.9 - 0.0 - - - - - - -
19/08:30pm 17.7 SSW 24 33 1022.8 - 0.0 - - - - - - -
19/08:29pm 17.6 SSW 23 33 1022.8 - 0.0 - - - - - - -
19/08:00pm 18.1 S 27 35 1022.4 - 0.0 - - - - - - -
19/07:30pm 18.3 S 30 35 1021.7 - 0.0 - - - - - - -
19/07:00pm 18.2 S 29 34 1021.3 - 0.0 - - - - - - -
19/06:30pm 17.8 S 28 34 1020.7 - 0.0 - - - - - - -
19/06:00pm 18.3 S 27 33 1020.4 - 0.0 - - - - - - -
19/05:30pm 18.1 S 26 32 1020.2 - 0.0 - - - - - - -
19/05:00pm 18.2 S 26 32 1019.7 - 0.0 - - - - - - -
19/04:30pm 18.2 S 25 32 1019.4 - 0.0 - - - - - - -
19/04:00pm 18.4 S 22 29 1019.2 - 0.0 - - - - - - -
19/03:30pm 18.4 S 23 29 1018.9 - 0.0 - - - - - - -
19/03:00pm 19.3 S 23 29 1018.7 - 0.0 - - - - - - -
19/02:30pm 19.5 S 25 31 1018.3 - 0.0 - - - - - - -
19/02:00pm 20.1 S 22 29 1018.0 - 0.0 - - - - - - -
19/01:30pm 20.8 S 19 26 1018.1 - 0.0 - - - - - - -
19/01:25pm 21.1 S 19 25 1017.9 - 0.0 - - - - - - -
19/01:00pm 21.0 S 10 14 1018.2 - 0.0 - - - - - - -
19/12:30pm 20.6 SSW 9 14 1018.3 - 0.0 - - - - - - -
19/12:00pm 20.6 SW 8 11 1018.4 - 0.0 - - - - - - -
19/11:30am 20.9 SSW 8 11 1018.4 - 0.0 - - - - - - -
19/11:00am 21.0 SW 7 12 1018.5 - 0.0 - - - - - - -
19/10:30am 21.2 SSW 9 14 1018.5 - 0.0 - - - - - - -
19/10:00am 21.1 SW 7 13 1018.2 - 0.0 - - - - - - -
19/09:30am 20.8 WSW 4 7 1018.1 - 0.0 - - - - - - -
19/09:00am 20.3 W 3 6 1017.9 - 3.0 - - - - - - -
19/08:30am 19.4 WNW 4 9 1017.6 - 3.0 - - - - - - -
19/08:00am 18.9 WNW 3 6 1017.0 - 3.0 - - - - - - -
19/07:30am 18.6 WNW 3 6 1016.6 - 3.0 - - - - - - -

Other Formats:

Comma delimited format used in spreadsheet applications
http://www.bom.gov.au/fwo/IDN60701/IDN60701.95770.axf

JavaScript Object Notation format (JSON) in row-major order
http://www.bom.gov.au/fwo/IDN60701/IDN60701.95770.json